Time;durP1;ratioP1;P1;durP2;ratioP2;P2;SDS_P1;SDS_P2;PMS_P1;PMS_P2;Temp;Humidity;BMP_temperature;BMP_pressure;BME280_temperature;BME280_humidity;BME280_pressure;Samples;Min_cycle;Max_cycle;Signal;HPM_P1;HPM_P2
2020/12/05 00:02:20;;;;;;;26.90;15.88;;;-0.80;99.90;;;;;;5015808;28;20077;-89
2020/12/05 00:04:47;;;;;;;25.73;14.77;;;-0.70;99.90;;;;;;5014817;28;20133;-89
2020/12/05 00:07:14;;;;;;;25.88;15.88;;;-0.80;99.90;;;;;;5014566;28;20483;-89
2020/12/05 00:09:41;;;;;;;30.90;15.82;;;-0.70;99.90;;;;;;5015630;28;20125;-89
2020/12/05 00:12:09;;;;;;;22.55;14.25;;;-0.70;99.90;;;;;;5014246;28;20132;-89
2020/12/05 00:14:52;;;;;;;22.95;13.55;;;-0.60;99.90;;;;;;5014761;28;20049;-89
2020/12/05 00:17:19;;;;;;;21.52;13.25;;;-0.60;99.90;;;;;;5026083;28;20102;-88
2020/12/05 00:19:45;;;;;;;22.63;14.35;;;-0.60;99.90;;;;;;5025881;28;20049;-89
2020/12/05 00:22:15;;;;;;;23.83;13.07;;;-0.60;99.90;;;;;;5018300;28;20412;-89
2020/12/05 00:24:44;;;;;;;26.90;15.30;;;-0.60;99.90;;;;;;5015352;28;20132;-89
2020/12/05 00:27:11;;;;;;;24.67;15.13;;;-0.50;99.90;;;;;;5015269;28;20535;-89
2020/12/05 00:29:37;;;;;;;26.23;15.27;;;-0.40;99.90;;;;;;5014490;28;20510;-89
2020/12/05 00:32:06;;;;;;;26.55;14.70;;;-0.50;99.90;;;;;;5014211;28;20457;-89
2020/12/05 00:34:32;;;;;;;26.73;15.18;;;-0.40;99.90;;;;;;5015234;28;20145;-89
2020/12/05 00:36:59;;;;;;;24.40;14.05;;;-0.30;99.90;;;;;;5013780;28;20046;-89
2020/12/05 00:39:25;;;;;;;22.98;13.75;;;-0.30;99.90;;;;;;5015091;28;20084;-89
2020/12/05 00:41:55;;;;;;;20.55;13.32;;;-0.30;99.90;;;;;;5013790;28;20046;-89
2020/12/05 00:44:21;;;;;;;23.75;13.88;;;-0.30;99.90;;;;;;5014066;28;20061;-89
2020/12/05 00:46:47;;;;;;;25.80;13.80;;;-0.30;99.90;;;;;;5014849;28;20141;-89
2020/12/05 00:49:13;;;;;;;23.02;14.63;;;-0.30;99.90;;;;;;5014960;28;20046;-89
2020/12/05 00:51:40;;;;;;;22.23;13.82;;;-0.30;99.90;;;;;;5013747;28;20050;-89
2020/12/05 00:54:06;;;;;;;23.60;14.07;;;-0.30;99.90;;;;;;5014672;28;20053;-89
2020/12/05 00:56:33;;;;;;;26.30;13.93;;;-0.30;99.90;;;;;;5013833;28;20058;-89
2020/12/05 00:58:59;;;;;;;22.45;13.57;;;-0.30;99.90;;;;;;5013826;28;20128;-89
2020/12/05 01:01:25;;;;;;;21.67;13.73;;;-0.20;99.90;;;;;;5014745;28;20137;-89
2020/12/05 01:03:51;;;;;;;23.52;13.40;;;-0.30;99.90;;;;;;5015903;28;20470;-88
2020/12/05 01:06:21;;;;;;;21.60;13.43;;;-0.20;99.90;;;;;;5013655;28;20049;-89
2020/12/05 01:08:48;;;;;;;20.40;12.88;;;-0.10;99.90;;;;;;5014443;28;20128;-89
2020/12/05 01:11:16;;;;;;;23.67;13.82;;;-0.10;99.90;;;;;;5013449;28;20057;-88
2020/12/05 01:13:43;;;;;;;18.90;12.30;;;0.00;99.90;;;;;;5013974;28;20136;-89
2020/12/05 01:16:13;;;;;;;21.42;13.07;;;0.00;99.90;;;;;;5014464;28;20137;-89
2020/12/05 01:18:40;;;;;;;21.95;12.88;;;0.00;99.90;;;;;;5014441;28;20045;-89
2020/12/05 01:21:14;;;;;;;20.50;12.55;;;0.00;99.90;;;;;;5046468;28;20050;-89
2020/12/05 01:23:41;;;;;;;21.25;12.30;;;0.10;99.90;;;;;;5014470;28;20049;-89
2020/12/05 01:26:08;;;;;;;20.05;12.90;;;0.10;99.90;;;;;;5046130;28;20087;-89
2020/12/05 01:28:35;;;;;;;19.23;11.82;;;0.10;99.90;;;;;;5013282;28;20056;-89
2020/12/05 01:31:02;;;;;;;18.90;12.63;;;0.10;99.90;;;;;;5013212;28;20045;-88
2020/12/05 01:33:30;;;;;;;23.13;13.35;;;0.10;99.90;;;;;;5013187;28;20050;-89
2020/12/05 01:35:58;;;;;;;22.85;13.63;;;0.10;99.90;;;;;;5014087;28;20088;-88
2020/12/05 01:38:25;;;;;;;21.13;12.35;;;0.10;99.90;;;;;;5012964;28;20056;-88
2020/12/05 01:40:54;;;;;;;22.80;13.43;;;0.00;99.90;;;;;;5012882;28;20046;-89
2020/12/05 01:43:20;;;;;;;20.90;13.05;;;0.10;99.90;;;;;;5014161;28;20145;-89
2020/12/05 01:45:49;;;;;;;23.15;12.93;;;0.10;99.90;;;;;;5012874;28;20236;-89
2020/12/05 01:48:18;;;;;;;18.40;12.02;;;-0.10;99.90;;;;;;5012852;28;20089;-89
2020/12/05 01:50:45;;;;;;;22.88;13.10;;;-0.20;99.90;;;;;;5013188;28;20042;-89
2020/12/05 01:53:15;;;;;;;24.42;13.02;;;-0.20;99.90;;;;;;5014071;28;20100;-89
2020/12/05 01:55:43;;;;;;;22.55;13.40;;;-0.20;99.90;;;;;;5014187;28;20472;-89
2020/12/05 01:58:10;;;;;;;21.50;13.70;;;-0.30;99.90;;;;;;5012585;28;20120;-89
2020/12/05 02:00:37;;;;;;;20.05;12.57;;;-0.40;99.90;;;;;;5012781;28;20088;-89
2020/12/05 02:03:03;;;;;;;21.23;13.38;;;-0.40;99.90;;;;;;5012535;28;20136;-89
2020/12/05 02:05:59;;;;;;;20.70;13.13;;;-0.60;99.90;;;;;;5012897;28;20050;-89
2020/12/05 02:08:36;;;;;;;20.70;12.98;;;-0.70;99.90;;;;;;5013558;28;20077;-88
2020/12/05 02:11:03;;;;;;;23.65;13.70;;;-0.80;99.90;;;;;;5013588;28;20140;-89
2020/12/05 02:13:36;;;;;;;20.35;13.43;;;-0.90;99.90;;;;;;5012394;28;20055;-88
2020/12/05 02:16:03;;;;;;;23.58;12.85;;;-1.00;99.90;;;;;;5045327;28;20084;-89
2020/12/05 02:18:31;;;;;;;21.77;12.82;;;-1.10;99.90;;;;;;5013374;28;20054;-88
2020/12/05 02:21:02;;;;;;;21.95;13.32;;;-1.20;99.90;;;;;;5013401;28;20042;-88
2020/12/05 02:23:29;;;;;;;21.83;12.57;;;-1.20;99.90;;;;;;5045242;28;20136;-88
2020/12/05 02:26:02;;;;;;;19.95;12.25;;;-1.30;99.90;;;;;;5014477;28;20058;-88
2020/12/05 02:28:28;;;;;;;20.40;12.65;;;-1.30;99.90;;;;;;5016804;28;20490;-88
2020/12/05 02:30:55;;;;;;;24.35;12.93;;;-1.50;99.90;;;;;;5055623;28;20033;-88
2020/12/05 02:33:21;;;;;;;21.88;13.00;;;-1.50;99.90;;;;;;5031020;28;20069;-88
2020/12/05 02:35:47;;;;;;;21.65;13.73;;;-1.60;99.90;;;;;;5019205;28;20141;-88
2020/12/05 02:38:38;;;;;;;22.35;14.13;;;-1.60;99.90;;;;;;5017278;28;20483;-88
2020/12/05 02:41:05;;;;;;;23.17;14.13;;;-1.70;99.90;;;;;;5049245;28;20108;-88
2020/12/05 02:43:33;;;;;;;22.23;13.80;;;-1.80;99.90;;;;;;5016672;28;20465;-88
2020/12/05 02:46:00;;;;;;;22.65;13.60;;;-1.80;99.90;;;;;;5048956;28;20500;-88
2020/12/05 02:48:26;;;;;;;25.38;14.20;;;-1.80;99.90;;;;;;5016225;28;20093;-88
2020/12/05 02:50:53;;;;;;;23.48;13.93;;;-1.70;99.90;;;;;;5016067;28;20081;-88
2020/12/05 02:53:19;;;;;;;25.58;14.20;;;-1.80;99.90;;;;;;5016199;28;20081;-88
2020/12/05 02:55:46;;;;;;;23.17;13.60;;;-1.90;99.90;;;;;;5016983;28;20128;-88
2020/12/05 02:58:12;;;;;;;22.77;14.63;;;-1.90;99.90;;;;;;5016251;28;20081;-88
2020/12/05 03:00:38;;;;;;;24.70;13.30;;;-2.00;99.90;;;;;;5016153;28;20476;-88
2020/12/05 03:03:05;;;;;;;23.73;12.50;;;-2.00;99.90;;;;;;5016505;28;20581;-88
2020/12/05 03:05:31;;;;;;;23.08;13.65;;;-2.20;99.90;;;;;;5016095;28;20502;-88
2020/12/05 03:07:57;;;;;;;24.15;13.38;;;-2.40;99.90;;;;;;5015855;28;20080;-88
2020/12/05 03:10:23;;;;;;;26.35;13.07;;;-2.40;99.90;;;;;;5015993;28;20128;-88
2020/12/05 03:12:50;;;;;;;24.58;13.82;;;-2.40;99.90;;;;;;5016009;28;20147;-87
2020/12/05 03:15:16;;;;;;;24.90;13.15;;;-2.40;99.90;;;;;;5016224;28;20089;-88
2020/12/05 03:17:42;;;;;;;22.02;13.05;;;-2.40;99.90;;;;;;5016381;28;20112;-87
2020/12/05 03:20:08;;;;;;;25.58;13.85;;;-2.40;99.90;;;;;;5016998;28;20132;-88
2020/12/05 03:22:35;;;;;;;24.60;14.55;;;-2.50;99.90;;;;;;5016876;28;20065;-87
2020/12/05 03:25:01;;;;;;;30.85;15.07;;;-2.50;99.90;;;;;;5015930;28;20137;-87
2020/12/05 03:27:27;;;;;;;23.15;14.00;;;-2.40;99.90;;;;;;5015781;28;20050;-87
2020/12/05 03:29:54;;;;;;;25.75;14.48;;;-2.40;99.90;;;;;;5015275;28;20120;-87
2020/12/05 03:32:25;;;;;;;27.10;14.30;;;-2.50;99.90;;;;;;5015273;28;20050;-87
2020/12/05 03:34:51;;;;;;;22.63;13.30;;;-2.40;99.90;;;;;;5015372;28;20581;-87
2020/12/05 03:37:19;;;;;;;25.80;13.88;;;-2.50;99.90;;;;;;5015982;28;20074;-87
2020/12/05 03:39:45;;;;;;;22.25;13.52;;;-2.50;99.90;;;;;;5016225;28;20081;-87
2020/12/05 03:42:12;;;;;;;22.63;13.70;;;-2.50;99.90;;;;;;5016072;28;20053;-87
2020/12/05 03:44:38;;;;;;;24.77;13.68;;;-2.50;99.90;;;;;;5016059;28;20132;-87
2020/12/05 03:47:05;;;;;;;24.55;13.75;;;-2.40;99.90;;;;;;5014677;28;20609;-87
2020/12/05 03:49:32;;;;;;;20.60;13.23;;;-2.50;99.90;;;;;;5016075;28;20070;-87
2020/12/05 03:52:00;;;;;;;27.67;14.35;;;-2.50;99.90;;;;;;5014875;28;20072;-87
2020/12/05 03:54:27;;;;;;;22.02;13.52;;;-2.60;99.90;;;;;;5048167;28;20085;-87
2020/12/05 03:56:55;;;;;;;23.92;14.25;;;-2.60;99.90;;;;;;5014827;28;20112;-87
2020/12/05 03:59:22;;;;;;;26.20;14.07;;;-2.80;99.90;;;;;;5015857;28;20046;-87
2020/12/05 04:01:48;;;;;;;25.23;13.75;;;-2.80;99.90;;;;;;5014677;28;20045;-87
2020/12/05 04:04:15;;;;;;;23.50;13.18;;;-2.90;99.90;;;;;;5014893;28;20483;-87
2020/12/05 04:06:41;;;;;;;21.75;14.40;;;-2.90;99.90;;;;;;5015912;28;20061;-86
2020/12/05 04:09:07;;;;;;;24.50;14.27;;;-2.90;99.90;;;;;;5016341;28;20050;-87
2020/12/05 04:11:37;;;;;;;26.92;14.07;;;-2.90;99.90;;;;;;5014252;28;20065;-87
2020/12/05 04:14:09;;;;;;;24.95;14.38;;;-2.90;99.90;;;;;;5014513;28;20077;-86
2020/12/05 04:16:36;;;;;;;27.25;14.05;;;-2.90;99.90;;;;;;5015630;28;20118;-87
2020/12/05 04:19:03;;;;;;;24.13;14.15;;;-2.90;99.90;;;;;;5014451;28;20058;-87
2020/12/05 04:21:29;;;;;;;25.33;14.45;;;-2.80;99.90;;;;;;5015410;28;20050;-87
2020/12/05 04:23:56;;;;;;;23.27;13.82;;;-2.80;99.90;;;;;;5014211;28;20045;-86
2020/12/05 04:26:23;;;;;;;23.38;14.13;;;-2.80;99.90;;;;;;5014100;28;20129;-86
2020/12/05 04:28:49;;;;;;;25.42;14.32;;;-2.90;99.90;;;;;;5015142;28;20125;-87
2020/12/05 04:31:16;;;;;;;30.25;15.93;;;-2.80;99.90;;;;;;5014182;28;20473;-87
2020/12/05 04:33:43;;;;;;;24.75;14.23;;;-2.90;99.90;;;;;;5014686;28;20045;-86
2020/12/05 04:36:09;;;;;;;28.38;15.95;;;-3.00;99.90;;;;;;5015151;28;20057;-86
2020/12/05 04:38:38;;;;;;;30.85;15.75;;;-3.00;99.90;;;;;;5014692;28;20057;-87
2020/12/05 04:41:04;;;;;;;31.98;15.73;;;-3.00;99.90;;;;;;5025458;28;20108;-87
2020/12/05 04:43:34;;;;;;;27.38;14.98;;;-2.90;99.90;;;;;;5017510;28;20451;-86
2020/12/05 04:46:01;;;;;;;30.85;15.82;;;-3.00;99.90;;;;;;5052596;28;20030;-86
2020/12/05 04:48:31;;;;;;;32.20;15.95;;;-3.00;99.90;;;;;;5018602;28;20132;-87
2020/12/05 04:51:02;;;;;;;27.35;14.98;;;-3.00;99.90;;;;;;5017343;28;20136;-87
2020/12/05 04:53:29;;;;;;;28.30;15.68;;;-3.00;99.90;;;;;;5017085;28;20053;-87
2020/12/05 04:56:00;;;;;;;24.63;14.43;;;-3.00;99.90;;;;;;5034264;28;20085;-86
2020/12/05 04:58:27;;;;;;;24.42;14.10;;;-3.10;99.90;;;;;;5016990;28;20494;-86
2020/12/05 05:00:58;;;;;;;30.05;15.85;;;-3.00;99.90;;;;;;5017305;28;20136;-87
2020/12/05 05:03:27;;;;;;;28.73;15.70;;;-3.10;99.90;;;;;;5017413;28;20051;-87
2020/12/05 05:05:57;;;;;;;30.83;16.10;;;-3.20;99.90;;;;;;5017151;28;20088;-86
2020/12/05 05:08:25;;;;;;;26.10;16.13;;;-3.10;99.90;;;;;;5034511;28;20045;-86
2020/12/05 05:11:09;;;;;;;28.75;15.93;;;-3.00;99.90;;;;;;5017086;28;20053;-86
2020/12/05 05:13:59;;;;;;;29.90;14.75;;;-3.00;99.90;;;;;;5016965;28;20049;-87
2020/12/05 05:16:28;;;;;;;34.95;16.25;;;-2.90;99.90;;;;;;5017066;28;20046;-87
2020/12/05 05:19:18;;;;;;;28.45;16.17;;;-2.90;99.90;;;;;;5033967;28;20487;-87
2020/12/05 05:21:45;;;;;;;28.40;15.23;;;-3.10;99.90;;;;;;5016745;28;20549;-86
2020/12/05 05:24:19;;;;;;;26.58;14.98;;;-3.10;99.90;;;;;;5033918;28;20137;-86
2020/12/05 05:26:59;;;;;;;26.73;14.85;;;-3.10;99.90;;;;;;5016407;28;20092;-86
2020/12/05 05:29:37;;;;;;;29.23;16.45;;;-3.10;99.90;;;;;;5033938;28;20057;-87
2020/12/05 05:32:22;;;;;;;31.70;16.77;;;-3.10;99.90;;;;;;5034022;28;20139;-87
2020/12/05 05:34:48;;;;;;;30.00;15.95;;;-3.00;99.90;;;;;;5016388;28;20140;-86
2020/12/05 05:37:19;;;;;;;28.45;15.48;;;-3.00;99.90;;;;;;5033613;28;20061;-86
2020/12/05 05:39:51;;;;;;;32.28;16.67;;;-3.00;99.90;;;;;;5016279;28;20041;-85
2020/12/05 05:42:31;;;;;;;24.80;14.60;;;-2.90;99.90;;;;;;5033703;28;20561;-87
2020/12/05 05:45:16;;;;;;;25.48;14.75;;;-3.00;99.90;;;;;;5016248;28;20057;-87
2020/12/05 05:47:44;;;;;;;29.77;16.40;;;-2.90;99.90;;;;;;5016169;28;20474;-87
2020/12/05 05:50:23;;;;;;;25.67;14.77;;;-2.90;99.90;;;;;;5016329;28;20552;-86
2020/12/05 05:53:04;;;;;;;24.70;14.70;;;-3.00;99.90;;;;;;5033458;28;20049;-86
2020/12/05 05:55:48;;;;;;;30.05;15.38;;;-3.10;99.90;;;;;;5034207;28;20136;-87
2020/12/05 05:58:20;;;;;;;31.42;14.98;;;-3.20;99.90;;;;;;5016025;28;20065;-86
2020/12/05 06:00:48;;;;;;;28.95;17.08;;;-3.20;99.90;;;;;;5016178;28;20494;-86
2020/12/05 06:03:24;;;;;;;30.17;17.77;;;-3.30;99.90;;;;;;5016152;28;20572;-86
2020/12/05 06:05:53;;;;;;;84.00;44.35;;;-3.20;99.90;;;;;;5033190;28;20045;-86
2020/12/05 06:08:39;;;;;;;65.32;31.30;;;-3.20;99.90;;;;;;5015997;28;20051;-86
2020/12/05 06:11:12;;;;;;;37.97;20.33;;;-3.10;99.90;;;;;;5015875;28;20045;-86
2020/12/05 06:13:40;;;;;;;33.42;18.30;;;-3.00;99.90;;;;;;5048878;28;20099;-86
2020/12/05 06:16:06;;;;;;;33.00;17.70;;;-2.90;99.90;;;;;;5033141;28;20461;-87
2020/12/05 06:18:32;;;;;;;32.03;17.13;;;-2.90;99.90;;;;;;5033324;28;20060;-87
2020/12/05 06:20:59;;;;;;;33.97;16.73;;;-2.90;99.90;;;;;;5033028;28;20045;-87
2020/12/05 06:23:34;;;;;;;29.80;16.23;;;-2.90;99.90;;;;;;5033114;28;20116;-86
2020/12/05 06:26:03;;;;;;;32.10;17.85;;;-2.80;99.90;;;;;;5015774;28;20128;-86
2020/12/05 06:28:30;;;;;;;28.52;15.82;;;-2.80;99.90;;;;;;5033425;28;20160;-87
2020/12/05 06:30:56;;;;;;;35.53;17.80;;;-2.70;99.90;;;;;;5015832;28;20124;-87
2020/12/05 06:33:45;;;;;;;27.77;16.25;;;-2.60;99.90;;;;;;5033146;28;20053;-87
2020/12/05 06:36:26;;;;;;;31.73;16.48;;;-2.70;99.90;;;;;;5033344;28;20054;-87
2020/12/05 06:39:05;;;;;;;31.50;17.73;;;-2.60;99.90;;;;;;5015768;28;20045;-87
2020/12/05 06:41:37;;;;;;;41.22;21.23;;;-2.60;99.90;;;;;;5015417;28;20063;-87
2020/12/05 06:44:24;;;;;;;44.55;18.27;;;-2.70;99.90;;;;;;5015584;28;20053;-87
2020/12/05 06:47:02;;;;;;;36.53;18.23;;;-2.60;99.90;;;;;;5015658;28;20050;-86
2020/12/05 06:49:38;;;;;;;43.97;19.23;;;-2.50;99.90;;;;;;5015796;28;20054;-86
2020/12/05 06:52:25;;;;;;;52.55;20.95;;;-2.50;99.90;;;;;;5032988;28;20053;-87
2020/12/05 06:54:58;;;;;;;44.95;19.67;;;-2.50;99.90;;;;;;5033191;28;20095;-87
2020/12/05 06:57:28;;;;;;;44.78;19.08;;;-2.50;99.90;;;;;;5015868;28;20077;-87
2020/12/05 07:00:17;;;;;;;41.65;20.20;;;-2.50;99.90;;;;;;5015396;28;20391;-88
2020/12/05 07:02:53;;;;;;;46.30;19.50;;;-2.30;99.90;;;;;;5031295;28;20069;-86
2020/12/05 07:05:19;;;;;;;73.53;21.05;;;-2.30;99.90;;;;;;5016111;28;20060;-87
2020/12/05 07:07:50;;;;;;;48.20;22.30;;;-2.30;99.90;;;;;;5006311;28;20053;-87
2020/12/05 07:10:18;;;;;;;51.80;23.73;;;-2.20;99.90;;;;;;5032985;28;20084;-87
2020/12/05 07:12:45;;;;;;;46.67;20.92;;;-2.10;99.90;;;;;;5035002;28;20045;-87
2020/12/05 07:15:32;;;;;;;55.10;27.08;;;-2.00;99.90;;;;;;5036463;28;20053;-87
2020/12/05 07:17:58;;;;;;;53.25;23.67;;;-1.90;99.90;;;;;;5018783;28;20143;-88
2020/12/05 07:20:25;;;;;;;58.50;23.92;;;-1.80;99.90;;;;;;5018892;28;20564;-88
2020/12/05 07:22:53;;;;;;;55.58;23.75;;;-1.70;99.90;;;;;;5036707;28;20049;-88
2020/12/05 07:25:20;;;;;;;50.75;29.15;;;-1.60;99.90;;;;;;5018580;28;20088;-88
2020/12/05 07:27:47;;;;;;;48.65;22.45;;;-1.50;99.90;;;;;;5018270;28;20061;-89
2020/12/05 07:30:14;;;;;;;52.50;22.17;;;-1.20;99.90;;;;;;5018491;28;20553;-88
2020/12/05 07:32:43;;;;;;;41.83;24.40;;;-0.90;99.90;;;;;;5018705;28;20495;-89
2020/12/05 07:35:15;;;;;;;46.95;20.30;;;-0.70;99.90;;;;;;5036338;28;20486;-89
2020/12/05 07:37:45;;;;;;;40.30;22.63;;;-0.50;99.90;;;;;;5029618;28;20100;-89
2020/12/05 07:40:12;;;;;;;35.03;20.85;;;-0.20;99.90;;;;;;5025092;28;20117;-91
2020/12/05 07:42:40;;;;;;;29.33;18.08;;;0.30;99.90;;;;;;5009901;28;20057;-91
2020/12/05 07:45:12;;;;;;;29.10;16.35;;;0.80;99.90;;;;;;5012743;28;20125;-91
2020/12/05 07:47:40;;;;;;;26.38;15.52;;;1.30;99.90;;;;;;5025126;28;20141;-94
2020/12/05 07:50:08;;;;;;;27.17;15.57;;;1.70;99.90;;;;;;5035651;28;20132;-90
2020/12/05 07:52:42;;;;;;;23.45;14.80;;;2.10;99.90;;;;;;5019380;28;20100;-91
2020/12/05 07:55:10;;;;;;;23.65;13.95;;;2.20;99.90;;;;;;5035844;28;20049;-91
2020/12/05 07:57:39;;;;;;;24.77;14.80;;;2.30;99.90;;;;;;5026859;28;20490;-92
2020/12/05 08:00:13;;;;;;;25.45;15.30;;;2.40;99.90;;;;;;5009261;28;20107;-91
2020/12/05 08:02:50;;;;;;;26.23;13.82;;;2.40;99.90;;;;;;5008930;28;20571;-90
2020/12/05 08:05:35;;;;;;;25.05;14.68;;;2.50;99.90;;;;;;5014124;28;20144;-91
2020/12/05 08:08:04;;;;;;;24.50;14.93;;;2.60;99.90;;;;;;5040988;28;20508;-91
2020/12/05 08:10:33;;;;;;;22.20;14.32;;;2.70;99.90;;;;;;5014517;28;20049;-91
2020/12/05 08:13:15;;;;;;;22.73;14.30;;;2.70;99.90;;;;;;5017856;28;20099;-90
2020/12/05 08:15:43;;;;;;;21.63;14.95;;;2.90;99.90;;;;;;5017737;28;20045;-89
2020/12/05 08:18:10;;;;;;;24.77;15.13;;;2.90;99.90;;;;;;5017910;28;20049;-90
2020/12/05 08:20:46;;;;;;;21.63;14.32;;;3.00;99.90;;;;;;5017531;28;20482;-90
2020/12/05 08:23:33;;;;;;;22.00;14.20;;;3.00;99.90;;;;;;5016941;28;20111;-90
2020/12/05 08:26:12;;;;;;;23.08;14.68;;;3.10;99.90;;;;;;5017751;28;20163;-90
2020/12/05 08:28:41;;;;;;;23.85;15.38;;;3.10;99.90;;;;;;5035052;28;20049;-89
2020/12/05 08:31:12;;;;;;;21.77;15.15;;;3.00;99.90;;;;;;5017541;28;20049;-90
2020/12/05 08:33:49;;;;;;;23.10;14.80;;;3.10;99.90;;;;;;5017841;28;20060;-90
2020/12/05 08:36:17;;;;;;;24.00;15.73;;;3.10;99.90;;;;;;5035192;28;20111;-90
2020/12/05 08:38:44;;;;;;;22.38;15.20;;;3.10;99.90;;;;;;5017490;28;20463;-90
2020/12/05 08:41:10;;;;;;;23.63;15.38;;;3.20;99.90;;;;;;5035111;28;20136;-89
2020/12/05 08:43:37;;;;;;;23.20;14.30;;;3.30;99.90;;;;;;5034842;28;20057;-89
2020/12/05 08:46:22;;;;;;;22.65;14.75;;;3.30;99.90;;;;;;5050196;28;20140;-89
2020/12/05 08:48:50;;;;;;;24.45;15.10;;;3.40;99.90;;;;;;5012821;28;20056;-89
2020/12/05 08:51:17;;;;;;;23.33;14.90;;;3.40;99.90;;;;;;5007798;28;20046;-89
2020/12/05 08:53:44;;;;;;;22.58;15.02;;;3.40;99.90;;;;;;4998222;28;20585;-89
2020/12/05 08:56:20;;;;;;;21.77;14.52;;;3.50;99.90;;;;;;4997809;28;20054;-89
2020/12/05 08:58:47;;;;;;;22.65;15.20;;;3.60;99.90;;;;;;4997438;28;20053;-90
2020/12/05 09:01:14;;;;;;;23.30;15.73;;;3.60;99.90;;;;;;4997191;28;20103;-89
2020/12/05 09:03:41;;;;;;;25.50;16.15;;;3.60;99.90;;;;;;4997381;28;20129;-89
2020/12/05 09:06:08;;;;;;;22.00;14.23;;;3.60;99.90;;;;;;4997181;28;20100;-89
2020/12/05 09:08:34;;;;;;;34.40;15.93;;;3.60;99.90;;;;;;4997121;28;20050;-89
2020/12/05 09:11:01;;;;;;;25.52;14.82;;;3.60;99.90;;;;;;4997392;28;20066;-88
2020/12/05 09:13:28;;;;;;;22.17;15.30;;;3.60;99.90;;;;;;4996127;28;20104;-89
2020/12/05 09:15:55;;;;;;;23.60;15.15;;;3.60;99.90;;;;;;5014550;28;20093;-89
2020/12/05 09:18:21;;;;;;;20.17;14.68;;;3.60;99.90;;;;;;5030918;28;20033;-89
2020/12/05 09:20:48;;;;;;;19.58;13.45;;;3.70;99.90;;;;;;5006223;28;20060;-89
2020/12/05 09:23:14;;;;;;;22.05;13.98;;;3.70;99.90;;;;;;4998384;28;20052;-89
2020/12/05 09:25:41;;;;;;;23.27;14.60;;;3.70;99.90;;;;;;5014136;28;20050;-89
2020/12/05 09:28:10;;;;;;;26.27;15.07;;;3.80;99.90;;;;;;5019360;28;20045;-89
2020/12/05 09:30:37;;;;;;;18.60;13.38;;;3.90;99.90;;;;;;5023199;28;20073;-88
2020/12/05 09:33:11;;;;;;;24.65;15.23;;;3.90;99.90;;;;;;5004484;28;20055;-89
2020/12/05 09:35:38;;;;;;;22.15;14.35;;;3.90;99.90;;;;;;5024237;28;20364;-89
2020/12/05 09:38:05;;;;;;;20.98;12.98;;;4.10;99.90;;;;;;4996472;28;20721;-89
2020/12/05 09:40:31;;;;;;;23.38;14.55;;;4.20;99.90;;;;;;5013929;28;20494;-89
2020/12/05 09:42:59;;;;;;;24.75;12.95;;;4.40;99.90;;;;;;5013834;28;20092;-89
2020/12/05 09:45:26;;;;;;;24.67;13.48;;;4.50;99.90;;;;;;4997047;28;20057;-89
2020/12/05 09:47:52;;;;;;;22.02;13.73;;;4.50;99.90;;;;;;5013934;28;20564;-89
2020/12/05 09:50:19;;;;;;;19.52;13.10;;;4.40;99.90;;;;;;4997270;28;20053;-89
2020/12/05 09:52:45;;;;;;;18.50;12.85;;;4.50;99.90;;;;;;5013994;28;20128;-89
2020/12/05 09:55:13;;;;;;;17.88;12.68;;;4.70;99.90;;;;;;4996287;28;20085;-89
2020/12/05 09:57:40;;;;;;;19.25;13.02;;;5.00;99.90;;;;;;5003717;28;20054;-89
2020/12/05 10:00:09;;;;;;;18.52;13.40;;;5.30;99.90;;;;;;4996605;28;20096;-89
2020/12/05 10:02:36;;;;;;;19.02;13.05;;;5.50;99.90;;;;;;4996703;28;20486;-89
2020/12/05 10:05:04;;;;;;;27.92;11.70;;;5.60;99.90;;;;;;4996506;28;20056;-89
2020/12/05 10:07:30;;;;;;;21.50;12.20;;;5.60;99.90;;;;;;5014053;28;20054;-90
2020/12/05 10:09:57;;;;;;;24.50;13.25;;;5.60;99.90;;;;;;5013343;28;20490;-90
2020/12/05 10:12:23;;;;;;;22.42;11.43;;;5.50;99.90;;;;;;4996329;28;20080;-89
2020/12/05 10:14:49;;;;;;;26.30;12.95;;;5.50;99.90;;;;;;4996488;28;20080;-90
2020/12/05 10:17:16;;;;;;;15.93;11.05;;;5.50;99.90;;;;;;4996281;28;20050;-89
2020/12/05 10:19:42;;;;;;;19.27;11.15;;;5.40;99.90;;;;;;4996064;28;20409;-90
2020/12/05 10:22:22;;;;;;;16.83;11.38;;;5.30;99.90;;;;;;4997848;28;20042;-89
2020/12/05 10:24:50;;;;;;;14.90;11.10;;;5.20;99.90;;;;;;5013413;28;20050;-90
2020/12/05 10:27:16;;;;;;;16.30;11.27;;;5.20;99.90;;;;;;5013483;28;20053;-89
2020/12/05 10:29:43;;;;;;;16.52;11.52;;;5.00;99.90;;;;;;4996189;28;20056;-89
2020/12/05 10:32:09;;;;;;;21.88;13.57;;;4.80;99.90;;;;;;5013520;28;20129;-88
2020/12/05 10:34:35;;;;;;;36.95;17.08;;;4.70;99.90;;;;;;4996290;28;20050;-89
2020/12/05 10:37:02;;;;;;;20.85;13.93;;;4.70;99.90;;;;;;5013440;28;20112;-91
2020/12/05 10:39:28;;;;;;;20.33;13.50;;;4.60;99.90;;;;;;5013433;28;20049;-91
2020/12/05 10:41:54;;;;;;;18.48;13.02;;;4.70;99.90;;;;;;4995781;28;20129;-90
2020/12/05 10:44:21;;;;;;;27.85;14.38;;;4.80;99.90;;;;;;4996348;28;20128;-89
2020/12/05 10:46:48;;;;;;;22.60;14.70;;;4.50;99.90;;;;;;5014248;28;20130;-89
2020/12/05 10:49:16;;;;;;;19.38;13.80;;;4.50;99.90;;;;;;5000167;28;20081;-90
2020/12/05 10:51:43;;;;;;;23.88;15.00;;;4.50;99.90;;;;;;5016978;28;20046;-91
2020/12/05 10:54:10;;;;;;;21.15;14.00;;;4.60;99.90;;;;;;4999852;28;20060;-90
2020/12/05 10:56:39;;;;;;;20.05;13.73;;;4.60;99.90;;;;;;5000034;28;20509;-90
2020/12/05 10:59:06;;;;;;;23.45;15.68;;;4.70;99.90;;;;;;4999425;28;20053;-91
2020/12/05 11:01:32;;;;;;;25.38;16.40;;;4.80;99.90;;;;;;4999964;28;20088;-91
2020/12/05 11:03:58;;;;;;;21.67;14.68;;;4.90;99.90;;;;;;5016807;28;20483;-90
2020/12/05 11:06:26;;;;;;;26.58;15.32;;;4.80;99.90;;;;;;5016992;28;20053;-91
2020/12/05 11:08:53;;;;;;;24.27;14.98;;;4.80;99.90;;;;;;4999685;28;20495;-90
2020/12/05 11:11:20;;;;;;;26.70;15.13;;;4.80;99.90;;;;;;4999918;28;20084;-91
2020/12/05 11:13:47;;;;;;;23.88;13.65;;;4.70;99.90;;;;;;5017209;28;20078;-90
2020/12/05 11:16:18;;;;;;;21.50;14.57;;;4.90;99.90;;;;;;5016964;28;20509;-89
2020/12/05 11:18:45;;;;;;;20.33;13.32;;;4.80;99.90;;;;;;5016752;28;20050;-90
2020/12/05 11:21:11;;;;;;;19.92;13.15;;;4.80;99.90;;;;;;4999865;28;20125;-90
2020/12/05 11:23:37;;;;;;;25.40;15.60;;;4.90;99.90;;;;;;4999785;28;20144;-91
2020/12/05 11:26:04;;;;;;;20.48;13.57;;;5.10;99.90;;;;;;5016821;28;20536;-90
2020/12/05 11:28:30;;;;;;;21.92;14.35;;;5.10;99.90;;;;;;5016716;28;20046;-90
2020/12/05 11:30:57;;;;;;;30.77;13.88;;;5.10;99.90;;;;;;5016731;28;20050;-90
2020/12/05 11:33:23;;;;;;;19.90;12.93;;;5.20;99.90;;;;;;5018716;28;20112;-90
2020/12/05 11:35:51;;;;;;;18.13;12.48;;;5.20;99.90;;;;;;5008116;28;20050;-90
2020/12/05 11:38:19;;;;;;;22.33;14.68;;;5.10;99.90;;;;;;5000566;28;20049;-90
2020/12/05 11:40:46;;;;;;;24.75;15.32;;;5.10;99.90;;;;;;4999096;28;20054;-90
2020/12/05 11:43:13;;;;;;;22.73;13.55;;;5.10;99.90;;;;;;4999301;28;20057;-90
2020/12/05 11:45:39;;;;;;;18.98;13.43;;;5.00;99.90;;;;;;4998894;28;20049;-89
2020/12/05 11:48:05;;;;;;;19.27;13.43;;;5.00;99.90;;;;;;5015942;28;20042;-90
2020/12/05 11:50:32;;;;;;;19.05;12.93;;;4.90;99.90;;;;;;4999317;28;20057;-90
2020/12/05 11:52:58;;;;;;;20.55;13.75;;;4.80;99.90;;;;;;5012054;28;20046;-90
2020/12/05 11:55:24;;;;;;;18.55;12.85;;;4.90;99.90;;;;;;5018332;28;20084;-90
2020/12/05 11:57:50;;;;;;;22.02;13.93;;;4.80;99.90;;;;;;5017599;28;20558;-90
2020/12/05 12:00:17;;;;;;;29.15;14.57;;;4.80;99.90;;;;;;5018313;28;20053;-90
2020/12/05 12:02:43;;;;;;;23.08;14.13;;;4.80;99.90;;;;;;5017847;28;20099;-90
2020/12/05 12:05:09;;;;;;;19.23;13.15;;;4.70;99.90;;;;;;5018384;28;20129;-90
2020/12/05 12:07:36;;;;;;;20.00;12.98;;;4.60;99.90;;;;;;5018309;28;20128;-90
2020/12/05 12:10:05;;;;;;;21.83;14.25;;;4.60;99.90;;;;;;5018210;28;20491;-90
2020/12/05 12:12:31;;;;;;;23.05;15.25;;;4.50;99.90;;;;;;5018089;28;20095;-90
2020/12/05 12:14:57;;;;;;;25.17;16.95;;;4.40;99.90;;;;;;5017729;28;20498;-89
2020/12/05 12:17:23;;;;;;;20.52;14.45;;;4.50;99.90;;;;;;5035644;28;20049;-91
2020/12/05 12:19:49;;;;;;;22.90;14.43;;;4.50;99.90;;;;;;5035233;28;20057;-90
2020/12/05 12:22:15;;;;;;;21.55;14.93;;;4.40;99.90;;;;;;5035699;28;20056;-89
2020/12/05 12:24:42;;;;;;;23.60;15.32;;;4.30;99.90;;;;;;5017820;28;20562;-90
2020/12/05 12:27:08;;;;;;;22.58;14.93;;;4.40;99.90;;;;;;5017961;28;20053;-90
2020/12/05 12:29:34;;;;;;;20.98;13.93;;;4.40;99.90;;;;;;5017603;28;20494;-89
2020/12/05 12:32:01;;;;;;;21.40;14.15;;;4.40;99.90;;;;;;5017792;28;20053;-90
2020/12/05 12:34:27;;;;;;;20.85;14.02;;;4.30;99.90;;;;;;5035160;28;20140;-90
2020/12/05 12:36:53;;;;;;;23.77;14.30;;;4.30;99.90;;;;;;5017693;28;20406;-89
2020/12/05 12:39:19;;;;;;;22.17;14.20;;;4.20;99.90;;;;;;5034895;28;20108;-90
2020/12/05 12:41:46;;;;;;;20.25;13.35;;;4.20;99.90;;;;;;5017130;28;20414;-90